sensor_id;sensor_type;location;lat;lon;timestamp;P1;durP1;ratioP1;P2;durP2;ratioP2
51216;SDS011;37283;49.760;8.648;2022-08-11T00:01:50;3.30;;;1.70;;
51216;SDS011;37283;49.760;8.648;2022-08-11T00:04:20;3.97;;;1.67;;
51216;SDS011;37283;49.760;8.648;2022-08-11T00:06:49;2.42;;;1.70;;
51216;SDS011;37283;49.760;8.648;2022-08-11T00:09:17;3.00;;;1.60;;
51216;SDS011;37283;49.760;8.648;2022-08-11T00:11:48;5.05;;;1.98;;
51216;SDS011;37283;49.760;8.648;2022-08-11T00:14:17;2.53;;;1.60;;
51216;SDS011;37283;49.760;8.648;2022-08-11T00:17:10;4.63;;;1.70;;
51216;SDS011;37283;49.760;8.648;2022-08-11T00:19:45;4.07;;;1.85;;
51216;SDS011;37283;49.760;8.648;2022-08-11T00:22:33;3.80;;;1.83;;
51216;SDS011;37283;49.760;8.648;2022-08-11T00:25:07;7.28;;;2.05;;
51216;SDS011;37283;49.760;8.648;2022-08-11T00:27:36;3.10;;;1.60;;
51216;SDS011;37283;49.760;8.648;2022-08-11T00:30:08;3.97;;;1.58;;
51216;SDS011;37283;49.760;8.648;2022-08-11T00:32:36;3.85;;;2.22;;
51216;SDS011;37283;49.760;8.648;2022-08-11T00:35:04;5.22;;;1.80;;
51216;SDS011;37283;49.760;8.648;2022-08-11T00:40:23;4.72;;;1.77;;
51216;SDS011;37283;49.760;8.648;2022-08-11T00:57:14;4.13;;;1.77;;
51216;SDS011;37283;49.760;8.648;2022-08-11T01:00:16;2.75;;;1.67;;
51216;SDS011;37283;49.760;8.648;2022-08-11T01:02:44;2.45;;;1.63;;
51216;SDS011;37283;49.760;8.648;2022-08-11T01:14:33;5.78;;;1.70;;
51216;SDS011;37283;49.760;8.648;2022-08-11T01:20:47;4.22;;;1.80;;
51216;SDS011;37283;49.760;8.648;2022-08-11T01:26:37;3.17;;;1.88;;
51216;SDS011;37283;49.760;8.648;2022-08-11T01:29:59;3.13;;;1.90;;
51216;SDS011;37283;49.760;8.648;2022-08-11T01:33:01;2.25;;;1.70;;
51216;SDS011;37283;49.760;8.648;2022-08-11T01:53:53;3.53;;;1.98;;
51216;SDS011;37283;49.760;8.648;2022-08-11T01:56:32;2.45;;;1.75;;
51216;SDS011;37283;49.760;8.648;2022-08-11T01:59:19;2.15;;;1.83;;
51216;SDS011;37283;49.760;8.648;2022-08-11T02:13:45;4.65;;;2.00;;
51216;SDS011;37283;49.760;8.648;2022-08-11T02:22:05;5.28;;;1.90;;
51216;SDS011;37283;49.760;8.648;2022-08-11T02:27:26;4.88;;;2.05;;
51216;SDS011;37283;49.760;8.648;2022-08-11T02:30:04;2.63;;;1.90;;
51216;SDS011;37283;49.760;8.648;2022-08-11T02:32:34;3.72;;;1.70;;
51216;SDS011;37283;49.760;8.648;2022-08-11T02:35:50;3.38;;;1.92;;
51216;SDS011;37283;49.760;8.648;2022-08-11T02:41:49;5.30;;;1.85;;
51216;SDS011;37283;49.760;8.648;2022-08-11T02:51:03;3.70;;;1.77;;
51216;SDS011;37283;49.760;8.648;2022-08-11T02:53:36;3.53;;;1.90;;
51216;SDS011;37283;49.760;8.648;2022-08-11T02:56:20;2.85;;;1.65;;
51216;SDS011;37283;49.760;8.648;2022-08-11T03:01:54;4.95;;;1.90;;
51216;SDS011;37283;49.760;8.648;2022-08-11T03:04:46;4.63;;;1.83;;
51216;SDS011;37283;49.760;8.648;2022-08-11T03:07:22;3.47;;;2.08;;
51216;SDS011;37283;49.760;8.648;2022-08-11T03:10:03;4.07;;;1.92;;
51216;SDS011;37283;49.760;8.648;2022-08-11T03:16:07;3.10;;;1.80;;
51216;SDS011;37283;49.760;8.648;2022-08-11T03:19:25;2.97;;;1.95;;
51216;SDS011;37283;49.760;8.648;2022-08-11T03:24:41;3.08;;;2.10;;
51216;SDS011;37283;49.760;8.648;2022-08-11T03:47:57;2.78;;;2.00;;
51216;SDS011;37283;49.760;8.648;2022-08-11T03:53:59;4.57;;;1.83;;
51216;SDS011;37283;49.760;8.648;2022-08-11T03:56:43;2.55;;;1.88;;
51216;SDS011;37283;49.760;8.648;2022-08-11T03:59:29;2.15;;;1.95;;
51216;SDS011;37283;49.760;8.648;2022-08-11T04:02:17;3.72;;;1.90;;
51216;SDS011;37283;49.760;8.648;2022-08-11T04:10:53;4.75;;;2.13;;
51216;SDS011;37283;49.760;8.648;2022-08-11T04:16:15;4.22;;;2.05;;
51216;SDS011;37283;49.760;8.648;2022-08-11T04:22:15;2.60;;;1.77;;
51216;SDS011;37283;49.760;8.648;2022-08-11T04:28:02;4.38;;;1.92;;
51216;SDS011;37283;49.760;8.648;2022-08-11T04:30:58;8.23;;;2.00;;
51216;SDS011;37283;49.760;8.648;2022-08-11T04:45:59;5.18;;;2.00;;
51216;SDS011;37283;49.760;8.648;2022-08-11T04:52:05;5.15;;;1.88;;
51216;SDS011;37283;49.760;8.648;2022-08-11T04:58:25;3.97;;;2.00;;
51216;SDS011;37283;49.760;8.648;2022-08-11T05:01:31;4.57;;;1.98;;
51216;SDS011;37283;49.760;8.648;2022-08-11T05:10:42;4.68;;;2.15;;
51216;SDS011;37283;49.760;8.648;2022-08-11T05:13:21;6.90;;;2.20;;
51216;SDS011;37283;49.760;8.648;2022-08-11T05:16:11;5.25;;;2.20;;
51216;SDS011;37283;49.760;8.648;2022-08-11T05:18:58;6.50;;;2.15;;
51216;SDS011;37283;49.760;8.648;2022-08-11T05:21:45;2.53;;;2.00;;
51216;SDS011;37283;49.760;8.648;2022-08-11T05:24:42;5.75;;;2.20;;
51216;SDS011;37283;49.760;8.648;2022-08-11T05:30:28;4.55;;;2.38;;
51216;SDS011;37283;49.760;8.648;2022-08-11T05:33:14;4.47;;;2.40;;
51216;SDS011;37283;49.760;8.648;2022-08-11T05:36:07;4.43;;;2.15;;
51216;SDS011;37283;49.760;8.648;2022-08-11T05:38:38;4.88;;;2.00;;
51216;SDS011;37283;49.760;8.648;2022-08-11T05:41:24;5.25;;;2.10;;
51216;SDS011;37283;49.760;8.648;2022-08-11T05:44:16;2.47;;;1.85;;
51216;SDS011;37283;49.760;8.648;2022-08-11T05:47:02;5.38;;;2.83;;
51216;SDS011;37283;49.760;8.648;2022-08-11T05:49:48;3.78;;;2.10;;
51216;SDS011;37283;49.760;8.648;2022-08-11T05:52:38;5.45;;;2.53;;
51216;SDS011;37283;49.760;8.648;2022-08-11T05:55:29;5.07;;;2.42;;
51216;SDS011;37283;49.760;8.648;2022-08-11T05:58:35;4.05;;;2.00;;
51216;SDS011;37283;49.760;8.648;2022-08-11T06:01:08;4.10;;;2.15;;
51216;SDS011;37283;49.760;8.648;2022-08-11T06:03:36;3.10;;;2.08;;
51216;SDS011;37283;49.760;8.648;2022-08-11T06:06:24;4.90;;;2.00;;
51216;SDS011;37283;49.760;8.648;2022-08-11T06:08:54;3.20;;;2.10;;
51216;SDS011;37283;49.760;8.648;2022-08-11T06:11:22;4.93;;;2.10;;
51216;SDS011;37283;49.760;8.648;2022-08-11T06:14:09;7.13;;;2.33;;
51216;SDS011;37283;49.760;8.648;2022-08-11T06:16:36;5.15;;;2.13;;
51216;SDS011;37283;49.760;8.648;2022-08-11T06:19:03;4.47;;;2.17;;
51216;SDS011;37283;49.760;8.648;2022-08-11T06:21:34;5.43;;;2.00;;
51216;SDS011;37283;49.760;8.648;2022-08-11T06:24:14;4.55;;;2.13;;
51216;SDS011;37283;49.760;8.648;2022-08-11T06:26:46;8.93;;;2.25;;
51216;SDS011;37283;49.760;8.648;2022-08-11T06:29:37;3.33;;;2.10;;
51216;SDS011;37283;49.760;8.648;2022-08-11T06:32:27;2.80;;;2.00;;
51216;SDS011;37283;49.760;8.648;2022-08-11T06:43:03;6.40;;;1.90;;
51216;SDS011;37283;49.760;8.648;2022-08-11T06:45:58;5.90;;;1.90;;
51216;SDS011;37283;49.760;8.648;2022-08-11T06:48:32;4.82;;;2.10;;
51216;SDS011;37283;49.760;8.648;2022-08-11T06:51:01;4.22;;;1.80;;
51216;SDS011;37283;49.760;8.648;2022-08-11T06:53:41;4.18;;;2.00;;
51216;SDS011;37283;49.760;8.648;2022-08-11T06:56:31;4.63;;;2.13;;
51216;SDS011;37283;49.760;8.648;2022-08-11T06:59:39;7.22;;;1.90;;
51216;SDS011;37283;49.760;8.648;2022-08-11T07:02:32;5.35;;;2.08;;
51216;SDS011;37283;49.760;8.648;2022-08-11T07:05:02;9.02;;;2.47;;
51216;SDS011;37283;49.760;8.648;2022-08-11T07:07:39;3.95;;;1.83;;
51216;SDS011;37283;49.760;8.648;2022-08-11T07:14:05;4.57;;;2.13;;
51216;SDS011;37283;49.760;8.648;2022-08-11T07:16:50;3.95;;;1.98;;
51216;SDS011;37283;49.760;8.648;2022-08-11T07:19:21;3.97;;;2.03;;
51216;SDS011;37283;49.760;8.648;2022-08-11T07:22:09;4.28;;;2.10;;
51216;SDS011;37283;49.760;8.648;2022-08-11T07:25:02;5.68;;;2.00;;
51216;SDS011;37283;49.760;8.648;2022-08-11T07:27:57;5.90;;;2.13;;
51216;SDS011;37283;49.760;8.648;2022-08-11T07:30:44;7.38;;;2.20;;
51216;SDS011;37283;49.760;8.648;2022-08-11T07:33:18;4.32;;;2.40;;
51216;SDS011;37283;49.760;8.648;2022-08-11T07:36:08;2.85;;;2.00;;
51216;SDS011;37283;49.760;8.648;2022-08-11T07:38:39;3.42;;;2.10;;
51216;SDS011;37283;49.760;8.648;2022-08-11T07:41:13;5.10;;;2.22;;
51216;SDS011;37283;49.760;8.648;2022-08-11T07:43:41;3.75;;;2.22;;
51216;SDS011;37283;49.760;8.648;2022-08-11T07:46:10;4.30;;;2.05;;
51216;SDS011;37283;49.760;8.648;2022-08-11T07:48:55;4.05;;;2.08;;
51216;SDS011;37283;49.760;8.648;2022-08-11T07:51:42;3.22;;;2.10;;
51216;SDS011;37283;49.760;8.648;2022-08-11T07:54:27;4.63;;;2.38;;
51216;SDS011;37283;49.760;8.648;2022-08-11T07:56:58;7.90;;;2.25;;
51216;SDS011;37283;49.760;8.648;2022-08-11T07:59:34;5.30;;;1.90;;
51216;SDS011;37283;49.760;8.648;2022-08-11T08:02:39;4.57;;;2.22;;
51216;SDS011;37283;49.760;8.648;2022-08-11T08:05:24;3.60;;;2.10;;
51216;SDS011;37283;49.760;8.648;2022-08-11T08:08:12;10.40;;;2.22;;
51216;SDS011;37283;49.760;8.648;2022-08-11T08:10:58;7.80;;;2.17;;
51216;SDS011;37283;49.760;8.648;2022-08-11T08:13:52;9.68;;;2.42;;
51216;SDS011;37283;49.760;8.648;2022-08-11T08:16:38;4.03;;;2.20;;
51216;SDS011;37283;49.760;8.648;2022-08-11T08:19:24;4.97;;;2.42;;
51216;SDS011;37283;49.760;8.648;2022-08-11T08:21:51;5.82;;;2.00;;
51216;SDS011;37283;49.760;8.648;2022-08-11T08:24:17;4.63;;;2.28;;
51216;SDS011;37283;49.760;8.648;2022-08-11T08:26:48;5.70;;;2.13;;
51216;SDS011;37283;49.760;8.648;2022-08-11T08:29:27;4.50;;;2.10;;
51216;SDS011;37283;49.760;8.648;2022-08-11T08:32:16;6.50;;;2.13;;
51216;SDS011;37283;49.760;8.648;2022-08-11T08:34:43;5.43;;;2.28;;
51216;SDS011;37283;49.760;8.648;2022-08-11T08:37:11;3.47;;;2.00;;
51216;SDS011;37283;49.760;8.648;2022-08-11T08:39:59;3.88;;;1.85;;
51216;SDS011;37283;49.760;8.648;2022-08-11T08:42:29;3.63;;;2.20;;
51216;SDS011;37283;49.760;8.648;2022-08-11T08:44:58;5.28;;;2.17;;
51216;SDS011;37283;49.760;8.648;2022-08-11T08:47:30;6.53;;;2.17;;
51216;SDS011;37283;49.760;8.648;2022-08-11T08:50:10;6.25;;;2.22;;
51216;SDS011;37283;49.760;8.648;2022-08-11T08:52:44;3.88;;;2.08;;
51216;SDS011;37283;49.760;8.648;2022-08-11T08:55:19;5.65;;;1.85;;
51216;SDS011;37283;49.760;8.648;2022-08-11T08:57:47;5.00;;;2.13;;
51216;SDS011;37283;49.760;8.648;2022-08-11T09:07:08;2.90;;;2.15;;
51216;SDS011;37283;49.760;8.648;2022-08-11T09:09:41;6.47;;;1.85;;
51216;SDS011;37283;49.760;8.648;2022-08-11T09:12:10;4.97;;;2.00;;
51216;SDS011;37283;49.760;8.648;2022-08-11T09:14:39;4.13;;;2.05;;
51216;SDS011;37283;49.760;8.648;2022-08-11T09:17:34;4.32;;;1.88;;
51216;SDS011;37283;49.760;8.648;2022-08-11T09:20:07;4.85;;;1.70;;
51216;SDS011;37283;49.760;8.648;2022-08-11T09:22:37;4.38;;;2.33;;
51216;SDS011;37283;49.760;8.648;2022-08-11T09:25:43;3.83;;;2.00;;
51216;SDS011;37283;49.760;8.648;2022-08-11T09:28:34;3.47;;;1.98;;
51216;SDS011;37283;49.760;8.648;2022-08-11T09:31:01;5.45;;;1.95;;
51216;SDS011;37283;49.760;8.648;2022-08-11T09:33:28;7.22;;;2.33;;
51216;SDS011;37283;49.760;8.648;2022-08-11T09:35:55;4.40;;;1.95;;
51216;SDS011;37283;49.760;8.648;2022-08-11T09:38:23;3.25;;;1.60;;
51216;SDS011;37283;49.760;8.648;2022-08-11T09:41:14;4.15;;;1.88;;
51216;SDS011;37283;49.760;8.648;2022-08-11T09:43:42;5.45;;;1.73;;
51216;SDS011;37283;49.760;8.648;2022-08-11T09:46:29;5.70;;;2.20;;
51216;SDS011;37283;49.760;8.648;2022-08-11T09:48:58;3.10;;;1.80;;
51216;SDS011;37283;49.760;8.648;2022-08-11T09:51:29;3.07;;;1.63;;
51216;SDS011;37283;49.760;8.648;2022-08-11T09:53:58;4.22;;;1.98;;
51216;SDS011;37283;49.760;8.648;2022-08-11T09:56:29;2.60;;;1.80;;
51216;SDS011;37283;49.760;8.648;2022-08-11T09:59:16;3.20;;;1.70;;
51216;SDS011;37283;49.760;8.648;2022-08-11T10:01:47;4.68;;;1.70;;
51216;SDS011;37283;49.760;8.648;2022-08-11T10:04:17;8.10;;;2.00;;
51216;SDS011;37283;49.760;8.648;2022-08-11T10:06:48;4.40;;;1.90;;
51216;SDS011;37283;49.760;8.648;2022-08-11T10:12:20;4.95;;;1.70;;
51216;SDS011;37283;49.760;8.648;2022-08-11T10:14:53;2.97;;;1.80;;
51216;SDS011;37283;49.760;8.648;2022-08-11T10:17:42;3.55;;;1.90;;
51216;SDS011;37283;49.760;8.648;2022-08-11T10:20:31;4.68;;;1.60;;
51216;SDS011;37283;49.760;8.648;2022-08-11T10:23:00;5.85;;;1.50;;
51216;SDS011;37283;49.760;8.648;2022-08-11T10:25:45;3.42;;;2.20;;
51216;SDS011;37283;49.760;8.648;2022-08-11T10:28:31;9.23;;;2.63;;
51216;SDS011;37283;49.760;8.648;2022-08-11T10:31:18;3.45;;;1.90;;
51216;SDS011;37283;49.760;8.648;2022-08-11T10:34:24;5.88;;;2.50;;
51216;SDS011;37283;49.760;8.648;2022-08-11T10:36:53;9.07;;;2.00;;
51216;SDS011;37283;49.760;8.648;2022-08-11T10:39:20;4.25;;;2.10;;
51216;SDS011;37283;49.760;8.648;2022-08-11T10:41:47;5.82;;;1.90;;
51216;SDS011;37283;49.760;8.648;2022-08-11T10:44:43;6.57;;;1.90;;
51216;SDS011;37283;49.760;8.648;2022-08-11T10:47:11;3.70;;;1.75;;
51216;SDS011;37283;49.760;8.648;2022-08-11T10:49:58;4.22;;;1.90;;
51216;SDS011;37283;49.760;8.648;2022-08-11T10:52:45;5.60;;;2.00;;
51216;SDS011;37283;49.760;8.648;2022-08-11T10:55:31;2.95;;;2.00;;
51216;SDS011;37283;49.760;8.648;2022-08-11T10:58:17;3.03;;;2.17;;
51216;SDS011;37283;49.760;8.648;2022-08-11T11:01:02;2.38;;;2.10;;
51216;SDS011;37283;49.760;8.648;2022-08-11T11:03:30;7.05;;;2.00;;
51216;SDS011;37283;49.760;8.648;2022-08-11T11:09:20;4.95;;;1.85;;
51216;SDS011;37283;49.760;8.648;2022-08-11T11:11:50;6.38;;;1.98;;
51216;SDS011;37283;49.760;8.648;2022-08-11T11:14:39;5.88;;;2.15;;
51216;SDS011;37283;49.760;8.648;2022-08-11T11:17:26;3.60;;;1.98;;
51216;SDS011;37283;49.760;8.648;2022-08-11T11:20:15;4.05;;;1.92;;
51216;SDS011;37283;49.760;8.648;2022-08-11T11:23:05;8.57;;;1.90;;
51216;SDS011;37283;49.760;8.648;2022-08-11T11:36:54;4.78;;;1.92;;
51216;SDS011;37283;49.760;8.648;2022-08-11T11:39:22;2.95;;;1.92;;
51216;SDS011;37283;49.760;8.648;2022-08-11T11:41:51;3.97;;;2.20;;
51216;SDS011;37283;49.760;8.648;2022-08-11T11:44:19;4.40;;;2.35;;
51216;SDS011;37283;49.760;8.648;2022-08-11T11:46:48;3.78;;;2.20;;
51216;SDS011;37283;49.760;8.648;2022-08-11T11:49:16;4.55;;;2.13;;
51216;SDS011;37283;49.760;8.648;2022-08-11T11:51:49;5.20;;;2.10;;
51216;SDS011;37283;49.760;8.648;2022-08-11T11:54:20;5.15;;;2.00;;
51216;SDS011;37283;49.760;8.648;2022-08-11T11:56:49;2.88;;;2.08;;
51216;SDS011;37283;49.760;8.648;2022-08-11T11:59:19;5.13;;;2.20;;
51216;SDS011;37283;49.760;8.648;2022-08-11T12:02:05;2.33;;;1.85;;
51216;SDS011;37283;49.760;8.648;2022-08-11T12:04:39;2.22;;;1.63;;
51216;SDS011;37283;49.760;8.648;2022-08-11T12:07:07;7.43;;;2.03;;
51216;SDS011;37283;49.760;8.648;2022-08-11T12:09:53;4.50;;;2.03;;
51216;SDS011;37283;49.760;8.648;2022-08-11T12:12:20;3.03;;;1.90;;
51216;SDS011;37283;49.760;8.648;2022-08-11T12:15:05;3.78;;;2.20;;
51216;SDS011;37283;49.760;8.648;2022-08-11T12:17:33;4.85;;;1.85;;
51216;SDS011;37283;49.760;8.648;2022-08-11T12:20:01;5.93;;;1.80;;
51216;SDS011;37283;49.760;8.648;2022-08-11T12:22:29;3.27;;;2.20;;
51216;SDS011;37283;49.760;8.648;2022-08-11T12:25:14;7.38;;;2.28;;
51216;SDS011;37283;49.760;8.648;2022-08-11T12:28:00;2.90;;;2.00;;
51216;SDS011;37283;49.760;8.648;2022-08-11T12:30:27;8.95;;;2.30;;
51216;SDS011;37283;49.760;8.648;2022-08-11T12:32:54;3.35;;;2.25;;
51216;SDS011;37283;49.760;8.648;2022-08-11T12:35:20;5.22;;;2.00;;
51216;SDS011;37283;49.760;8.648;2022-08-11T12:37:48;7.53;;;2.05;;
51216;SDS011;37283;49.760;8.648;2022-08-11T12:40:21;3.22;;;2.10;;
51216;SDS011;37283;49.760;8.648;2022-08-11T12:43:29;7.55;;;2.00;;
51216;SDS011;37283;49.760;8.648;2022-08-11T12:46:24;5.22;;;2.35;;
51216;SDS011;37283;49.760;8.648;2022-08-11T12:48:57;2.65;;;1.73;;
51216;SDS011;37283;49.760;8.648;2022-08-11T12:51:45;2.90;;;2.00;;
51216;SDS011;37283;49.760;8.648;2022-08-11T13:00:15;5.07;;;2.17;;
51216;SDS011;37283;49.760;8.648;2022-08-11T13:03:00;4.95;;;2.00;;
51216;SDS011;37283;49.760;8.648;2022-08-11T13:05:46;8.18;;;2.08;;
51216;SDS011;37283;49.760;8.648;2022-08-11T13:08:15;3.58;;;2.00;;
51216;SDS011;37283;49.760;8.648;2022-08-11T13:10:42;5.13;;;1.92;;
51216;SDS011;37283;49.760;8.648;2022-08-11T13:13:28;2.20;;;1.80;;
51216;SDS011;37283;49.760;8.648;2022-08-11T13:16:15;3.15;;;2.03;;
51216;SDS011;37283;49.760;8.648;2022-08-11T13:18:42;4.63;;;2.05;;
51216;SDS011;37283;49.760;8.648;2022-08-11T13:21:09;4.72;;;1.90;;
51216;SDS011;37283;49.760;8.648;2022-08-11T13:23:45;3.13;;;1.80;;
51216;SDS011;37283;49.760;8.648;2022-08-11T13:26:27;7.72;;;2.10;;
51216;SDS011;37283;49.760;8.648;2022-08-11T13:29:15;2.95;;;1.77;;
51216;SDS011;37283;49.760;8.648;2022-08-11T13:31:43;4.57;;;1.77;;
51216;SDS011;37283;49.760;8.648;2022-08-11T13:34:10;4.03;;;1.85;;
51216;SDS011;37283;49.760;8.648;2022-08-11T13:36:37;5.03;;;1.90;;
51216;SDS011;37283;49.760;8.648;2022-08-11T13:39:04;4.10;;;1.85;;
51216;SDS011;37283;49.760;8.648;2022-08-11T13:41:30;2.83;;;1.73;;
51216;SDS011;37283;49.760;8.648;2022-08-11T13:44:05;5.40;;;1.92;;
51216;SDS011;37283;49.760;8.648;2022-08-11T13:46:36;3.75;;;1.70;;
51216;SDS011;37283;49.760;8.648;2022-08-11T13:49:04;2.83;;;1.60;;
51216;SDS011;37283;49.760;8.648;2022-08-11T13:51:35;5.40;;;1.83;;
51216;SDS011;37283;49.760;8.648;2022-08-11T13:54:04;3.85;;;1.55;;
51216;SDS011;37283;49.760;8.648;2022-08-11T13:56:41;4.15;;;2.38;;
51216;SDS011;37283;49.760;8.648;2022-08-11T14:01:36;3.88;;;1.77;;
51216;SDS011;37283;49.760;8.648;2022-08-11T14:04:30;2.17;;;1.70;;
51216;SDS011;37283;49.760;8.648;2022-08-11T14:07:02;4.55;;;1.73;;
51216;SDS011;37283;49.760;8.648;2022-08-11T14:09:34;5.07;;;1.67;;
51216;SDS011;37283;49.760;8.648;2022-08-11T14:12:08;5.88;;;1.80;;
51216;SDS011;37283;49.760;8.648;2022-08-11T14:15:04;4.43;;;1.70;;
51216;SDS011;37283;49.760;8.648;2022-08-11T14:17:34;4.68;;;1.80;;
51216;SDS011;37283;49.760;8.648;2022-08-11T14:20:15;4.97;;;1.80;;
51216;SDS011;37283;49.760;8.648;2022-08-11T14:25:29;5.78;;;1.80;;
51216;SDS011;37283;49.760;8.648;2022-08-11T14:28:15;3.22;;;1.88;;
51216;SDS011;37283;49.760;8.648;2022-08-11T14:31:01;6.25;;;1.55;;
51216;SDS011;37283;49.760;8.648;2022-08-11T14:33:29;4.85;;;1.73;;
51216;SDS011;37283;49.760;8.648;2022-08-11T14:36:18;3.20;;;1.80;;
51216;SDS011;37283;49.760;8.648;2022-08-11T14:38:46;3.05;;;1.70;;
51216;SDS011;37283;49.760;8.648;2022-08-11T14:41:13;2.50;;;1.70;;
51216;SDS011;37283;49.760;8.648;2022-08-11T14:43:58;6.03;;;1.70;;
51216;SDS011;37283;49.760;8.648;2022-08-11T14:46:43;9.80;;;1.90;;
51216;SDS011;37283;49.760;8.648;2022-08-11T14:49:28;4.15;;;1.60;;
51216;SDS011;37283;49.760;8.648;2022-08-11T14:51:56;3.25;;;1.80;;
51216;SDS011;37283;49.760;8.648;2022-08-11T14:54:24;3.13;;;1.70;;
51216;SDS011;37283;49.760;8.648;2022-08-11T14:57:10;2.80;;;1.60;;
51216;SDS011;37283;49.760;8.648;2022-08-11T14:59:36;5.05;;;2.50;;
51216;SDS011;37283;49.760;8.648;2022-08-11T15:02:03;3.42;;;1.73;;
51216;SDS011;37283;49.760;8.648;2022-08-11T15:04:49;5.22;;;1.60;;
51216;SDS011;37283;49.760;8.648;2022-08-11T15:07:16;3.90;;;2.00;;
51216;SDS011;37283;49.760;8.648;2022-08-11T15:09:43;2.72;;;1.58;;
51216;SDS011;37283;49.760;8.648;2022-08-11T15:12:30;4.22;;;1.70;;
51216;SDS011;37283;49.760;8.648;2022-08-11T15:17:44;5.65;;;1.50;;
51216;SDS011;37283;49.760;8.648;2022-08-11T15:20:15;4.18;;;1.70;;
51216;SDS011;37283;49.760;8.648;2022-08-11T15:23:01;3.60;;;1.50;;
51216;SDS011;37283;49.760;8.648;2022-08-11T15:25:49;5.38;;;1.58;;
51216;SDS011;37283;49.760;8.648;2022-08-11T15:28:18;3.53;;;1.70;;
51216;SDS011;37283;49.760;8.648;2022-08-11T15:31:04;2.92;;;1.60;;
51216;SDS011;37283;49.760;8.648;2022-08-11T15:33:50;4.10;;;1.85;;
51216;SDS011;37283;49.760;8.648;2022-08-11T15:36:43;3.00;;;1.63;;
51216;SDS011;37283;49.760;8.648;2022-08-11T15:39:37;4.00;;;1.50;;
51216;SDS011;37283;49.760;8.648;2022-08-11T15:42:57;3.65;;;1.55;;
51216;SDS011;37283;49.760;8.648;2022-08-11T15:45:45;2.30;;;1.60;;
51216;SDS011;37283;49.760;8.648;2022-08-11T15:48:20;4.55;;;1.60;;
51216;SDS011;37283;49.760;8.648;2022-08-11T15:50:52;5.97;;;1.70;;
51216;SDS011;37283;49.760;8.648;2022-08-11T15:53:25;2.67;;;1.58;;
51216;SDS011;37283;49.760;8.648;2022-08-11T15:55:54;5.53;;;1.70;;
51216;SDS011;37283;49.760;8.648;2022-08-11T15:58:22;2.60;;;1.75;;
51216;SDS011;37283;49.760;8.648;2022-08-11T16:01:07;2.50;;;1.50;;
51216;SDS011;37283;49.760;8.648;2022-08-11T16:04:00;4.05;;;1.80;;
51216;SDS011;37283;49.760;8.648;2022-08-11T16:06:40;4.40;;;1.50;;
51216;SDS011;37283;49.760;8.648;2022-08-11T16:09:16;4.65;;;1.45;;
51216;SDS011;37283;49.760;8.648;2022-08-11T16:11:44;5.75;;;1.70;;
51216;SDS011;37283;49.760;8.648;2022-08-11T16:14:12;3.13;;;1.70;;
51216;SDS011;37283;49.760;8.648;2022-08-11T16:17:00;5.40;;;1.50;;
51216;SDS011;37283;49.760;8.648;2022-08-11T16:19:27;1.77;;;1.40;;
51216;SDS011;37283;49.760;8.648;2022-08-11T16:22:02;2.55;;;1.50;;
51216;SDS011;37283;49.760;8.648;2022-08-11T16:24:33;10.88;;;2.22;;
51216;SDS011;37283;49.760;8.648;2022-08-11T16:27:21;4.78;;;1.73;;
51216;SDS011;37283;49.760;8.648;2022-08-11T16:29:49;4.13;;;1.60;;
51216;SDS011;37283;49.760;8.648;2022-08-11T16:32:20;3.70;;;1.60;;
51216;SDS011;37283;49.760;8.648;2022-08-11T16:34:50;4.28;;;1.42;;
51216;SDS011;37283;49.760;8.648;2022-08-11T16:37:38;2.00;;;1.33;;
51216;SDS011;37283;49.760;8.648;2022-08-11T16:40:24;2.72;;;1.40;;
51216;SDS011;37283;49.760;8.648;2022-08-11T16:42:51;2.85;;;1.50;;
51216;SDS011;37283;49.760;8.648;2022-08-11T16:45:38;4.53;;;1.60;;
51216;SDS011;37283;49.760;8.648;2022-08-11T16:48:24;3.67;;;1.55;;
51216;SDS011;37283;49.760;8.648;2022-08-11T16:51:06;3.05;;;1.42;;
51216;SDS011;37283;49.760;8.648;2022-08-11T16:53:34;2.63;;;1.40;;
51216;SDS011;37283;49.760;8.648;2022-08-11T16:56:22;5.57;;;1.95;;
51216;SDS011;37283;49.760;8.648;2022-08-11T16:58:53;3.92;;;1.40;;
51216;SDS011;37283;49.760;8.648;2022-08-11T17:01:40;4.85;;;1.60;;
51216;SDS011;37283;49.760;8.648;2022-08-11T17:04:14;2.63;;;1.30;;
51216;SDS011;37283;49.760;8.648;2022-08-11T17:07:00;4.22;;;1.23;;
51216;SDS011;37283;49.760;8.648;2022-08-11T17:10:10;3.97;;;1.38;;
51216;SDS011;37283;49.760;8.648;2022-08-11T17:13:20;2.80;;;1.45;;
51216;SDS011;37283;49.760;8.648;2022-08-11T17:15:49;6.03;;;1.48;;
51216;SDS011;37283;49.760;8.648;2022-08-11T17:18:49;3.78;;;1.70;;
51216;SDS011;37283;49.760;8.648;2022-08-11T17:21:26;3.92;;;1.70;;
51216;SDS011;37283;49.760;8.648;2022-08-11T17:23:59;2.03;;;1.30;;
51216;SDS011;37283;49.760;8.648;2022-08-11T17:26:37;2.17;;;1.30;;
51216;SDS011;37283;49.760;8.648;2022-08-11T17:29:32;3.03;;;1.35;;
51216;SDS011;37283;49.760;8.648;2022-08-11T17:35:22;3.03;;;1.40;;
51216;SDS011;37283;49.760;8.648;2022-08-11T17:38:00;3.05;;;1.50;;
51216;SDS011;37283;49.760;8.648;2022-08-11T17:40:34;2.83;;;1.50;;
51216;SDS011;37283;49.760;8.648;2022-08-11T17:43:05;3.70;;;1.95;;
51216;SDS011;37283;49.760;8.648;2022-08-11T17:45:51;3.23;;;1.50;;
51216;SDS011;37283;49.760;8.648;2022-08-11T17:48:42;6.65;;;1.50;;
51216;SDS011;37283;49.760;8.648;2022-08-11T17:51:14;5.43;;;1.55;;
51216;SDS011;37283;49.760;8.648;2022-08-11T17:54:03;2.97;;;1.60;;
51216;SDS011;37283;49.760;8.648;2022-08-11T17:56:51;2.63;;;1.60;;
51216;SDS011;37283;49.760;8.648;2022-08-11T17:59:47;2.88;;;1.50;;
51216;SDS011;37283;49.760;8.648;2022-08-11T18:02:28;7.43;;;1.52;;
51216;SDS011;37283;49.760;8.648;2022-08-11T18:05:16;9.60;;;1.55;;
51216;SDS011;37283;49.760;8.648;2022-08-11T18:07:44;4.13;;;1.30;;
51216;SDS011;37283;49.760;8.648;2022-08-11T18:10:31;4.38;;;1.38;;
51216;SDS011;37283;49.760;8.648;2022-08-11T18:13:17;3.60;;;1.50;;
51216;SDS011;37283;49.760;8.648;2022-08-11T18:16:05;4.40;;;1.52;;
51216;SDS011;37283;49.760;8.648;2022-08-11T18:18:51;4.07;;;1.50;;
51216;SDS011;37283;49.760;8.648;2022-08-11T18:21:37;5.72;;;1.48;;
51216;SDS011;37283;49.760;8.648;2022-08-11T18:24:42;3.38;;;1.48;;
51216;SDS011;37283;49.760;8.648;2022-08-11T18:27:30;2.92;;;1.58;;
51216;SDS011;37283;49.760;8.648;2022-08-11T18:30:17;2.35;;;1.48;;
51216;SDS011;37283;49.760;8.648;2022-08-11T18:33:02;3.15;;;1.60;;
51216;SDS011;37283;49.760;8.648;2022-08-11T18:36:09;5.10;;;1.55;;
51216;SDS011;37283;49.760;8.648;2022-08-11T18:38:55;2.92;;;1.42;;
51216;SDS011;37283;49.760;8.648;2022-08-11T18:41:41;4.07;;;1.60;;
51216;SDS011;37283;49.760;8.648;2022-08-11T18:44:29;3.67;;;1.58;;
51216;SDS011;37283;49.760;8.648;2022-08-11T18:47:15;4.18;;;1.30;;
51216;SDS011;37283;49.760;8.648;2022-08-11T18:50:03;2.90;;;1.48;;
51216;SDS011;37283;49.760;8.648;2022-08-11T18:53:04;3.83;;;1.40;;
51216;SDS011;37283;49.760;8.648;2022-08-11T18:55:50;2.13;;;1.40;;
51216;SDS011;37283;49.760;8.648;2022-08-11T18:58:36;2.65;;;1.58;;
51216;SDS011;37283;49.760;8.648;2022-08-11T19:01:25;4.80;;;1.60;;
51216;SDS011;37283;49.760;8.648;2022-08-11T19:04:11;3.97;;;1.38;;
51216;SDS011;37283;49.760;8.648;2022-08-11T19:07:03;4.00;;;1.50;;
51216;SDS011;37283;49.760;8.648;2022-08-11T19:09:49;2.80;;;1.63;;
51216;SDS011;37283;49.760;8.648;2022-08-11T19:12:36;1.92;;;1.48;;
51216;SDS011;37283;49.760;8.648;2022-08-11T20:07:59;2.72;;;1.50;;
51216;SDS011;37283;49.760;8.648;2022-08-11T20:10:44;1.95;;;1.27;;
51216;SDS011;37283;49.760;8.648;2022-08-11T20:13:31;3.60;;;1.55;;
51216;SDS011;37283;49.760;8.648;2022-08-11T20:16:17;3.63;;;1.50;;
51216;SDS011;37283;49.760;8.648;2022-08-11T20:19:03;2.28;;;1.38;;
51216;SDS011;37283;49.760;8.648;2022-08-11T20:22:09;3.58;;;1.70;;
51216;SDS011;37283;49.760;8.648;2022-08-11T20:24:55;4.25;;;1.60;;
51216;SDS011;37283;49.760;8.648;2022-08-11T20:27:41;3.15;;;1.48;;
51216;SDS011;37283;49.760;8.648;2022-08-11T20:30:27;2.50;;;1.67;;